sensor_id;sensor_type;location;lat;lon;timestamp;P1;durP1;ratioP1;P2;durP2;ratioP2
17361;SDS011;8798;51.938;4.348;2023-06-10T00:00:59;9.25;;;5.63;;
17361;SDS011;8798;51.938;4.348;2023-06-10T00:03:28;6.65;;;5.28;;
17361;SDS011;8798;51.938;4.348;2023-06-10T00:05:56;7.85;;;4.70;;
17361;SDS011;8798;51.938;4.348;2023-06-10T00:08:24;8.93;;;5.40;;
17361;SDS011;8798;51.938;4.348;2023-06-10T00:10:52;8.10;;;5.18;;
17361;SDS011;8798;51.938;4.348;2023-06-10T00:13:20;7.05;;;5.60;;
17361;SDS011;8798;51.938;4.348;2023-06-10T00:15:48;6.43;;;5.30;;
17361;SDS011;8798;51.938;4.348;2023-06-10T00:18:16;9.32;;;5.55;;
17361;SDS011;8798;51.938;4.348;2023-06-10T00:20:45;7.18;;;5.30;;
17361;SDS011;8798;51.938;4.348;2023-06-10T00:23:15;8.07;;;5.50;;
17361;SDS011;8798;51.938;4.348;2023-06-10T00:25:43;9.52;;;6.55;;
17361;SDS011;8798;51.938;4.348;2023-06-10T00:28:10;8.35;;;6.22;;
17361;SDS011;8798;51.938;4.348;2023-06-10T00:30:39;7.10;;;5.65;;
17361;SDS011;8798;51.938;4.348;2023-06-10T00:33:07;8.70;;;6.00;;
17361;SDS011;8798;51.938;4.348;2023-06-10T00:35:35;6.55;;;5.75;;
17361;SDS011;8798;51.938;4.348;2023-06-10T00:38:04;7.07;;;6.18;;
17361;SDS011;8798;51.938;4.348;2023-06-10T00:40:33;9.85;;;6.22;;
17361;SDS011;8798;51.938;4.348;2023-06-10T00:43:06;7.78;;;5.70;;
17361;SDS011;8798;51.938;4.348;2023-06-10T00:45:34;9.80;;;6.30;;
17361;SDS011;8798;51.938;4.348;2023-06-10T00:48:02;10.13;;;5.97;;
17361;SDS011;8798;51.938;4.348;2023-06-10T00:50:31;8.13;;;5.80;;
17361;SDS011;8798;51.938;4.348;2023-06-10T00:52:59;10.50;;;6.28;;
17361;SDS011;8798;51.938;4.348;2023-06-10T00:55:29;9.45;;;6.32;;
17361;SDS011;8798;51.938;4.348;2023-06-10T00:57:57;8.85;;;5.90;;
17361;SDS011;8798;51.938;4.348;2023-06-10T01:00:26;7.50;;;5.85;;
17361;SDS011;8798;51.938;4.348;2023-06-10T01:02:53;7.85;;;5.88;;
17361;SDS011;8798;51.938;4.348;2023-06-10T01:05:25;8.43;;;6.13;;
17361;SDS011;8798;51.938;4.348;2023-06-10T01:07:56;8.80;;;6.13;;
17361;SDS011;8798;51.938;4.348;2023-06-10T01:10:32;7.38;;;5.93;;
17361;SDS011;8798;51.938;4.348;2023-06-10T01:13:03;9.95;;;5.68;;
17361;SDS011;8798;51.938;4.348;2023-06-10T01:15:34;7.68;;;5.93;;
17361;SDS011;8798;51.938;4.348;2023-06-10T01:18:03;8.38;;;6.13;;
17361;SDS011;8798;51.938;4.348;2023-06-10T01:20:34;8.50;;;6.00;;
17361;SDS011;8798;51.938;4.348;2023-06-10T01:23:07;9.63;;;5.88;;
17361;SDS011;8798;51.938;4.348;2023-06-10T01:25:37;8.38;;;5.95;;
17361;SDS011;8798;51.938;4.348;2023-06-10T01:28:07;10.07;;;6.35;;
17361;SDS011;8798;51.938;4.348;2023-06-10T01:30:43;8.18;;;6.38;;
17361;SDS011;8798;51.938;4.348;2023-06-10T01:33:17;7.47;;;5.97;;
17361;SDS011;8798;51.938;4.348;2023-06-10T01:35:49;8.27;;;5.65;;
17361;SDS011;8798;51.938;4.348;2023-06-10T01:38:19;7.43;;;6.00;;
17361;SDS011;8798;51.938;4.348;2023-06-10T01:40:48;8.27;;;5.97;;
17361;SDS011;8798;51.938;4.348;2023-06-10T01:43:19;7.55;;;6.05;;
17361;SDS011;8798;51.938;4.348;2023-06-10T01:45:47;7.10;;;5.85;;
17361;SDS011;8798;51.938;4.348;2023-06-10T01:48:15;7.65;;;5.60;;
17361;SDS011;8798;51.938;4.348;2023-06-10T01:50:43;8.65;;;6.10;;
17361;SDS011;8798;51.938;4.348;2023-06-10T01:53:11;7.82;;;5.72;;
17361;SDS011;8798;51.938;4.348;2023-06-10T01:55:40;7.60;;;6.05;;
17361;SDS011;8798;51.938;4.348;2023-06-10T01:58:08;6.80;;;5.88;;
17361;SDS011;8798;51.938;4.348;2023-06-10T02:00:36;10.18;;;5.65;;
17361;SDS011;8798;51.938;4.348;2023-06-10T02:03:04;7.88;;;5.93;;
17361;SDS011;8798;51.938;4.348;2023-06-10T02:05:32;7.05;;;5.68;;
17361;SDS011;8798;51.938;4.348;2023-06-10T02:07:59;8.30;;;5.28;;
17361;SDS011;8798;51.938;4.348;2023-06-10T02:10:27;8.95;;;6.10;;
17361;SDS011;8798;51.938;4.348;2023-06-10T02:12:57;7.25;;;5.75;;
17361;SDS011;8798;51.938;4.348;2023-06-10T02:15:25;7.22;;;5.88;;
17361;SDS011;8798;51.938;4.348;2023-06-10T02:17:53;8.40;;;5.15;;
17361;SDS011;8798;51.938;4.348;2023-06-10T02:20:21;9.38;;;5.57;;
17361;SDS011;8798;51.938;4.348;2023-06-10T02:22:49;6.78;;;5.55;;
17361;SDS011;8798;51.938;4.348;2023-06-10T02:25:16;8.07;;;5.70;;
17361;SDS011;8798;51.938;4.348;2023-06-10T02:27:44;9.43;;;6.00;;
17361;SDS011;8798;51.938;4.348;2023-06-10T02:30:14;6.50;;;5.50;;
17361;SDS011;8798;51.938;4.348;2023-06-10T02:32:42;8.85;;;6.28;;
17361;SDS011;8798;51.938;4.348;2023-06-10T02:35:13;7.82;;;6.10;;
17361;SDS011;8798;51.938;4.348;2023-06-10T02:37:42;8.20;;;5.43;;
17361;SDS011;8798;51.938;4.348;2023-06-10T02:40:10;8.43;;;5.60;;
17361;SDS011;8798;51.938;4.348;2023-06-10T02:42:39;8.18;;;5.95;;
17361;SDS011;8798;51.938;4.348;2023-06-10T02:45:07;6.93;;;5.47;;
17361;SDS011;8798;51.938;4.348;2023-06-10T02:47:37;5.65;;;5.05;;
17361;SDS011;8798;51.938;4.348;2023-06-10T02:50:06;7.57;;;5.72;;
17361;SDS011;8798;51.938;4.348;2023-06-10T02:52:34;6.88;;;5.72;;
17361;SDS011;8798;51.938;4.348;2023-06-10T02:55:02;7.63;;;5.57;;
17361;SDS011;8798;51.938;4.348;2023-06-10T02:57:30;7.20;;;5.57;;
17361;SDS011;8798;51.938;4.348;2023-06-10T02:59:58;7.18;;;5.57;;
17361;SDS011;8798;51.938;4.348;2023-06-10T03:02:26;8.25;;;5.55;;
17361;SDS011;8798;51.938;4.348;2023-06-10T03:04:56;7.50;;;5.32;;
17361;SDS011;8798;51.938;4.348;2023-06-10T03:07:24;6.35;;;4.95;;
17361;SDS011;8798;51.938;4.348;2023-06-10T03:09:52;5.70;;;5.03;;
17361;SDS011;8798;51.938;4.348;2023-06-10T03:12:20;7.38;;;5.47;;
17361;SDS011;8798;51.938;4.348;2023-06-10T03:14:48;7.70;;;5.47;;
17361;SDS011;8798;51.938;4.348;2023-06-10T03:17:15;8.90;;;5.28;;
17361;SDS011;8798;51.938;4.348;2023-06-10T03:19:43;5.82;;;4.85;;
17361;SDS011;8798;51.938;4.348;2023-06-10T03:22:13;7.28;;;4.97;;
17361;SDS011;8798;51.938;4.348;2023-06-10T03:24:42;7.50;;;5.43;;
17361;SDS011;8798;51.938;4.348;2023-06-10T03:27:10;6.82;;;5.15;;
17361;SDS011;8798;51.938;4.348;2023-06-10T03:29:38;8.52;;;5.03;;
17361;SDS011;8798;51.938;4.348;2023-06-10T03:32:06;10.10;;;5.30;;
17361;SDS011;8798;51.938;4.348;2023-06-10T03:34:34;8.38;;;5.47;;
17361;SDS011;8798;51.938;4.348;2023-06-10T03:37:02;6.75;;;5.05;;
17361;SDS011;8798;51.938;4.348;2023-06-10T03:39:32;7.55;;;4.75;;
17361;SDS011;8798;51.938;4.348;2023-06-10T03:42:00;6.03;;;4.40;;
17361;SDS011;8798;51.938;4.348;2023-06-10T03:44:28;8.00;;;4.72;;
17361;SDS011;8798;51.938;4.348;2023-06-10T03:46:56;8.20;;;4.70;;
17361;SDS011;8798;51.938;4.348;2023-06-10T03:49:24;7.50;;;4.93;;
17361;SDS011;8798;51.938;4.348;2023-06-10T03:51:53;8.38;;;4.90;;
17361;SDS011;8798;51.938;4.348;2023-06-10T03:54:21;13.10;;;4.50;;
17361;SDS011;8798;51.938;4.348;2023-06-10T03:56:50;6.70;;;4.97;;
17361;SDS011;8798;51.938;4.348;2023-06-10T03:59:18;7.65;;;4.75;;
17361;SDS011;8798;51.938;4.348;2023-06-10T04:01:46;6.78;;;4.43;;
17361;SDS011;8798;51.938;4.348;2023-06-10T04:04:14;7.30;;;4.90;;
17361;SDS011;8798;51.938;4.348;2023-06-10T04:06:43;7.32;;;4.80;;
17361;SDS011;8798;51.938;4.348;2023-06-10T04:09:11;5.65;;;4.10;;
17361;SDS011;8798;51.938;4.348;2023-06-10T04:11:39;6.97;;;4.53;;
17361;SDS011;8798;51.938;4.348;2023-06-10T04:14:08;5.85;;;4.47;;
17361;SDS011;8798;51.938;4.348;2023-06-10T04:16:36;8.05;;;4.70;;
17361;SDS011;8798;51.938;4.348;2023-06-10T04:19:04;7.75;;;4.63;;
17361;SDS011;8798;51.938;4.348;2023-06-10T04:21:32;9.43;;;4.75;;
17361;SDS011;8798;51.938;4.348;2023-06-10T04:24:00;6.88;;;4.15;;
17361;SDS011;8798;51.938;4.348;2023-06-10T04:26:28;7.85;;;4.47;;
17361;SDS011;8798;51.938;4.348;2023-06-10T04:28:56;6.50;;;4.32;;
17361;SDS011;8798;51.938;4.348;2023-06-10T04:31:25;7.28;;;4.38;;
17361;SDS011;8798;51.938;4.348;2023-06-10T04:33:53;6.43;;;4.10;;
17361;SDS011;8798;51.938;4.348;2023-06-10T04:36:21;8.20;;;4.05;;
17361;SDS011;8798;51.938;4.348;2023-06-10T04:38:50;7.05;;;3.85;;
17361;SDS011;8798;51.938;4.348;2023-06-10T04:41:18;6.40;;;4.30;;
17361;SDS011;8798;51.938;4.348;2023-06-10T04:43:46;8.07;;;4.00;;
17361;SDS011;8798;51.938;4.348;2023-06-10T04:46:14;6.87;;;4.67;;
17361;SDS011;8798;51.938;4.348;2023-06-10T04:48:43;6.80;;;4.00;;
17361;SDS011;8798;51.938;4.348;2023-06-10T04:51:13;9.25;;;4.10;;
17361;SDS011;8798;51.938;4.348;2023-06-10T04:53:41;6.82;;;4.20;;
17361;SDS011;8798;51.938;4.348;2023-06-10T04:56:09;9.35;;;3.92;;
17361;SDS011;8798;51.938;4.348;2023-06-10T04:58:36;7.57;;;3.55;;
17361;SDS011;8798;51.938;4.348;2023-06-10T05:01:04;8.05;;;3.97;;
17361;SDS011;8798;51.938;4.348;2023-06-10T05:03:32;6.10;;;3.90;;
17361;SDS011;8798;51.938;4.348;2023-06-10T05:06:01;5.03;;;3.70;;
17361;SDS011;8798;51.938;4.348;2023-06-10T05:08:29;5.93;;;3.90;;
17361;SDS011;8798;51.938;4.348;2023-06-10T05:10:57;7.50;;;4.43;;
17361;SDS011;8798;51.938;4.348;2023-06-10T05:13:25;5.60;;;3.83;;
17361;SDS011;8798;51.938;4.348;2023-06-10T05:15:53;5.40;;;3.93;;
17361;SDS011;8798;51.938;4.348;2023-06-10T05:18:21;7.17;;;4.00;;
17361;SDS011;8798;51.938;4.348;2023-06-10T05:20:49;5.63;;;3.70;;
17361;SDS011;8798;51.938;4.348;2023-06-10T05:23:18;6.30;;;3.65;;
17361;SDS011;8798;51.938;4.348;2023-06-10T05:25:46;7.15;;;3.95;;
17361;SDS011;8798;51.938;4.348;2023-06-10T05:28:14;6.28;;;3.90;;
17361;SDS011;8798;51.938;4.348;2023-06-10T05:30:42;6.97;;;3.70;;
17361;SDS011;8798;51.938;4.348;2023-06-10T05:33:10;6.05;;;4.20;;
17361;SDS011;8798;51.938;4.348;2023-06-10T05:35:38;5.95;;;3.58;;
17361;SDS011;8798;51.938;4.348;2023-06-10T05:38:07;6.38;;;4.10;;
17361;SDS011;8798;51.938;4.348;2023-06-10T05:40:36;5.83;;;3.90;;
17361;SDS011;8798;51.938;4.348;2023-06-10T05:43:04;6.00;;;3.67;;
17361;SDS011;8798;51.938;4.348;2023-06-10T05:45:32;5.70;;;3.78;;
17361;SDS011;8798;51.938;4.348;2023-06-10T05:47:59;7.00;;;4.30;;
17361;SDS011;8798;51.938;4.348;2023-06-10T05:50:27;5.68;;;3.67;;
17361;SDS011;8798;51.938;4.348;2023-06-10T05:52:55;6.50;;;3.67;;
17361;SDS011;8798;51.938;4.348;2023-06-10T05:55:24;5.90;;;3.80;;
17361;SDS011;8798;51.938;4.348;2023-06-10T05:57:59;9.35;;;4.18;;
17361;SDS011;8798;51.938;4.348;2023-06-10T06:00:27;7.55;;;4.03;;
17361;SDS011;8798;51.938;4.348;2023-06-10T06:02:55;8.07;;;4.45;;
17361;SDS011;8798;51.938;4.348;2023-06-10T06:05:25;8.50;;;4.13;;
17361;SDS011;8798;51.938;4.348;2023-06-10T06:07:53;6.70;;;4.18;;
17361;SDS011;8798;51.938;4.348;2023-06-10T06:10:21;7.25;;;3.90;;
17361;SDS011;8798;51.938;4.348;2023-06-10T06:12:49;5.55;;;3.70;;
17361;SDS011;8798;51.938;4.348;2023-06-10T06:15:18;5.45;;;3.80;;
17361;SDS011;8798;51.938;4.348;2023-06-10T06:17:46;6.20;;;3.58;;
17361;SDS011;8798;51.938;4.348;2023-06-10T06:20:13;10.80;;;4.45;;
17361;SDS011;8798;51.938;4.348;2023-06-10T06:22:45;5.60;;;3.90;;
17361;SDS011;8798;51.938;4.348;2023-06-10T06:25:13;7.18;;;4.07;;
17361;SDS011;8798;51.938;4.348;2023-06-10T06:27:41;7.28;;;4.03;;
17361;SDS011;8798;51.938;4.348;2023-06-10T06:30:09;7.22;;;4.07;;
17361;SDS011;8798;51.938;4.348;2023-06-10T06:32:39;7.18;;;4.30;;
17361;SDS011;8798;51.938;4.348;2023-06-10T06:35:07;6.00;;;4.03;;
17361;SDS011;8798;51.938;4.348;2023-06-10T06:37:36;8.13;;;4.28;;
17361;SDS011;8798;51.938;4.348;2023-06-10T06:40:04;6.28;;;4.30;;
17361;SDS011;8798;51.938;4.348;2023-06-10T06:42:33;7.57;;;4.30;;
17361;SDS011;8798;51.938;4.348;2023-06-10T06:45:01;8.25;;;4.05;;
17361;SDS011;8798;51.938;4.348;2023-06-10T06:47:29;5.47;;;3.67;;
17361;SDS011;8798;51.938;4.348;2023-06-10T06:49:58;7.80;;;4.18;;
17361;SDS011;8798;51.938;4.348;2023-06-10T06:52:26;10.50;;;4.65;;
17361;SDS011;8798;51.938;4.348;2023-06-10T06:54:53;5.90;;;3.88;;
17361;SDS011;8798;51.938;4.348;2023-06-10T06:57:21;6.13;;;4.03;;
17361;SDS011;8798;51.938;4.348;2023-06-10T06:59:49;8.23;;;4.35;;
17361;SDS011;8798;51.938;4.348;2023-06-10T07:02:17;6.55;;;4.28;;
17361;SDS011;8798;51.938;4.348;2023-06-10T07:04:46;7.05;;;4.20;;
17361;SDS011;8798;51.938;4.348;2023-06-10T07:07:16;6.47;;;4.13;;
17361;SDS011;8798;51.938;4.348;2023-06-10T07:09:44;6.45;;;4.28;;
17361;SDS011;8798;51.938;4.348;2023-06-10T07:12:12;7.75;;;4.07;;
17361;SDS011;8798;51.938;4.348;2023-06-10T07:14:40;6.13;;;4.25;;
17361;SDS011;8798;51.938;4.348;2023-06-10T07:17:08;8.93;;;4.38;;
17361;SDS011;8798;51.938;4.348;2023-06-10T07:19:36;9.07;;;4.10;;
17361;SDS011;8798;51.938;4.348;2023-06-10T07:22:04;8.55;;;4.85;;
17361;SDS011;8798;51.938;4.348;2023-06-10T07:24:33;7.00;;;4.25;;
17361;SDS011;8798;51.938;4.348;2023-06-10T07:27:01;6.43;;;3.95;;
17361;SDS011;8798;51.938;4.348;2023-06-10T07:29:29;6.90;;;4.28;;
17361;SDS011;8798;51.938;4.348;2023-06-10T07:31:57;4.95;;;3.65;;
17361;SDS011;8798;51.938;4.348;2023-06-10T07:34:24;6.55;;;4.40;;
17361;SDS011;8798;51.938;4.348;2023-06-10T07:36:52;5.97;;;4.60;;
17361;SDS011;8798;51.938;4.348;2023-06-10T07:39:20;5.20;;;3.95;;
17361;SDS011;8798;51.938;4.348;2023-06-10T07:41:49;7.10;;;4.00;;
17361;SDS011;8798;51.938;4.348;2023-06-10T07:44:20;7.80;;;4.40;;
17361;SDS011;8798;51.938;4.348;2023-06-10T07:46:47;6.63;;;3.88;;
17361;SDS011;8798;51.938;4.348;2023-06-10T07:49:15;9.15;;;4.10;;
17361;SDS011;8798;51.938;4.348;2023-06-10T07:51:43;8.70;;;4.50;;
17361;SDS011;8798;51.938;4.348;2023-06-10T07:54:11;6.35;;;4.30;;
17361;SDS011;8798;51.938;4.348;2023-06-10T07:56:42;7.22;;;4.20;;
17361;SDS011;8798;51.938;4.348;2023-06-10T07:59:13;7.35;;;4.07;;
17361;SDS011;8798;51.938;4.348;2023-06-10T08:01:40;7.68;;;4.13;;
17361;SDS011;8798;51.938;4.348;2023-06-10T08:04:09;6.80;;;4.15;;
17361;SDS011;8798;51.938;4.348;2023-06-10T08:06:37;5.88;;;3.88;;
17361;SDS011;8798;51.938;4.348;2023-06-10T08:09:05;7.72;;;3.80;;
17361;SDS011;8798;51.938;4.348;2023-06-10T08:11:33;5.88;;;3.58;;
17361;SDS011;8798;51.938;4.348;2023-06-10T08:14:01;5.65;;;3.85;;
17361;SDS011;8798;51.938;4.348;2023-06-10T08:16:30;6.28;;;4.32;;
17361;SDS011;8798;51.938;4.348;2023-06-10T08:18:58;8.23;;;4.15;;
17361;SDS011;8798;51.938;4.348;2023-06-10T08:21:26;6.57;;;4.25;;
17361;SDS011;8798;51.938;4.348;2023-06-10T08:23:54;7.60;;;3.85;;
17361;SDS011;8798;51.938;4.348;2023-06-10T08:26:23;7.53;;;3.90;;
17361;SDS011;8798;51.938;4.348;2023-06-10T08:28:51;5.28;;;3.90;;
17361;SDS011;8798;51.938;4.348;2023-06-10T08:31:20;6.28;;;3.97;;
17361;SDS011;8798;51.938;4.348;2023-06-10T08:33:50;5.75;;;4.05;;
17361;SDS011;8798;51.938;4.348;2023-06-10T08:36:17;5.03;;;3.92;;
17361;SDS011;8798;51.938;4.348;2023-06-10T08:38:45;7.80;;;4.68;;
17361;SDS011;8798;51.938;4.348;2023-06-10T08:41:14;6.28;;;3.70;;
17361;SDS011;8798;51.938;4.348;2023-06-10T08:43:45;6.30;;;3.67;;
17361;SDS011;8798;51.938;4.348;2023-06-10T08:46:18;5.72;;;3.80;;
17361;SDS011;8798;51.938;4.348;2023-06-10T08:48:46;6.00;;;4.05;;
17361;SDS011;8798;51.938;4.348;2023-06-10T08:51:21;5.95;;;3.58;;
17361;SDS011;8798;51.938;4.348;2023-06-10T08:53:53;5.45;;;3.95;;
17361;SDS011;8798;51.938;4.348;2023-06-10T08:56:28;6.30;;;3.75;;
17361;SDS011;8798;51.938;4.348;2023-06-10T08:58:58;5.25;;;3.60;;
17361;SDS011;8798;51.938;4.348;2023-06-10T09:01:26;5.93;;;3.78;;
17361;SDS011;8798;51.938;4.348;2023-06-10T09:03:57;5.10;;;3.90;;
17361;SDS011;8798;51.938;4.348;2023-06-10T09:06:27;6.15;;;3.92;;
17361;SDS011;8798;51.938;4.348;2023-06-10T09:08:55;6.22;;;3.92;;
17361;SDS011;8798;51.938;4.348;2023-06-10T09:11:23;6.03;;;3.88;;
17361;SDS011;8798;51.938;4.348;2023-06-10T09:13:53;4.97;;;3.70;;
17361;SDS011;8798;51.938;4.348;2023-06-10T09:16:20;5.78;;;4.05;;
17361;SDS011;8798;51.938;4.348;2023-06-10T09:18:48;5.85;;;3.83;;
17361;SDS011;8798;51.938;4.348;2023-06-10T09:21:22;5.65;;;3.95;;
17361;SDS011;8798;51.938;4.348;2023-06-10T09:23:50;6.65;;;3.53;;
17361;SDS011;8798;51.938;4.348;2023-06-10T09:26:18;5.10;;;3.42;;
17361;SDS011;8798;51.938;4.348;2023-06-10T09:28:48;5.43;;;3.80;;
17361;SDS011;8798;51.938;4.348;2023-06-10T09:31:16;5.20;;;3.83;;
17361;SDS011;8798;51.938;4.348;2023-06-10T09:33:48;8.65;;;3.63;;
17361;SDS011;8798;51.938;4.348;2023-06-10T09:36:22;5.13;;;3.67;;
17361;SDS011;8798;51.938;4.348;2023-06-10T09:38:51;5.03;;;3.58;;
17361;SDS011;8798;51.938;4.348;2023-06-10T09:41:19;6.57;;;4.28;;
17361;SDS011;8798;51.938;4.348;2023-06-10T09:43:47;5.20;;;3.80;;
17361;SDS011;8798;51.938;4.348;2023-06-10T09:46:15;5.90;;;3.83;;
17361;SDS011;8798;51.938;4.348;2023-06-10T09:48:44;5.28;;;4.05;;
17361;SDS011;8798;51.938;4.348;2023-06-10T09:51:13;5.38;;;3.67;;
17361;SDS011;8798;51.938;4.348;2023-06-10T09:53:44;5.03;;;3.72;;
17361;SDS011;8798;51.938;4.348;2023-06-10T09:56:16;5.85;;;3.53;;
17361;SDS011;8798;51.938;4.348;2023-06-10T09:58:44;4.53;;;3.20;;
17361;SDS011;8798;51.938;4.348;2023-06-10T10:01:13;5.70;;;3.78;;
17361;SDS011;8798;51.938;4.348;2023-06-10T10:03:43;4.40;;;3.55;;
17361;SDS011;8798;51.938;4.348;2023-06-10T10:06:12;7.15;;;4.07;;
17361;SDS011;8798;51.938;4.348;2023-06-10T10:08:41;4.25;;;3.63;;
17361;SDS011;8798;51.938;4.348;2023-06-10T10:11:11;7.70;;;3.55;;
17361;SDS011;8798;51.938;4.348;2023-06-10T10:13:39;4.15;;;3.45;;
17361;SDS011;8798;51.938;4.348;2023-06-10T10:16:09;5.88;;;3.88;;
17361;SDS011;8798;51.938;4.348;2023-06-10T10:18:39;5.10;;;3.33;;
17361;SDS011;8798;51.938;4.348;2023-06-10T10:21:11;5.80;;;3.60;;
17361;SDS011;8798;51.938;4.348;2023-06-10T10:23:41;4.97;;;3.40;;
17361;SDS011;8798;51.938;4.348;2023-06-10T10:26:17;5.55;;;3.72;;
17361;SDS011;8798;51.938;4.348;2023-06-10T10:28:58;7.13;;;3.50;;
17361;SDS011;8798;51.938;4.348;2023-06-10T10:31:32;4.00;;;3.33;;
17361;SDS011;8798;51.938;4.348;2023-06-10T10:34:02;5.03;;;3.80;;
17361;SDS011;8798;51.938;4.348;2023-06-10T10:36:34;5.45;;;3.63;;
17361;SDS011;8798;51.938;4.348;2023-06-10T10:39:03;7.25;;;4.00;;
17361;SDS011;8798;51.938;4.348;2023-06-10T10:41:33;3.95;;;3.35;;
17361;SDS011;8798;51.938;4.348;2023-06-10T10:44:03;5.03;;;3.75;;
17361;SDS011;8798;51.938;4.348;2023-06-10T10:46:41;10.77;;;3.83;;
17361;SDS011;8798;51.938;4.348;2023-06-10T10:49:10;4.53;;;3.38;;
17361;SDS011;8798;51.938;4.348;2023-06-10T10:51:53;5.55;;;3.95;;
17361;SDS011;8798;51.938;4.348;2023-06-10T10:54:29;5.32;;;3.72;;
17361;SDS011;8798;51.938;4.348;2023-06-10T10:57:15;4.68;;;3.50;;
17361;SDS011;8798;51.938;4.348;2023-06-10T10:59:57;5.15;;;3.50;;
17361;SDS011;8798;51.938;4.348;2023-06-10T11:02:39;5.63;;;3.30;;
17361;SDS011;8798;51.938;4.348;2023-06-10T11:05:10;4.93;;;3.38;;
17361;SDS011;8798;51.938;4.348;2023-06-10T11:07:51;6.07;;;3.65;;
17361;SDS011;8798;51.938;4.348;2023-06-10T11:10:20;4.47;;;3.55;;
17361;SDS011;8798;51.938;4.348;2023-06-10T11:12:58;4.97;;;3.80;;
17361;SDS011;8798;51.938;4.348;2023-06-10T11:15:27;6.85;;;3.35;;
17361;SDS011;8798;51.938;4.348;2023-06-10T11:18:18;3.92;;;3.42;;
17361;SDS011;8798;51.938;4.348;2023-06-10T11:20:51;5.32;;;3.80;;
17361;SDS011;8798;51.938;4.348;2023-06-10T11:26:13;4.97;;;3.63;;
17361;SDS011;8798;51.938;4.348;2023-06-10T11:31:31;4.57;;;3.78;;
17361;SDS011;8798;51.938;4.348;2023-06-10T11:34:01;9.70;;;4.00;;
17361;SDS011;8798;51.938;4.348;2023-06-10T11:36:31;5.35;;;4.05;;
17361;SDS011;8798;51.938;4.348;2023-06-10T11:39:00;4.60;;;3.78;;
17361;SDS011;8798;51.938;4.348;2023-06-10T11:41:30;5.55;;;4.25;;
17361;SDS011;8798;51.938;4.348;2023-06-10T11:44:00;6.57;;;4.30;;
17361;SDS011;8798;51.938;4.348;2023-06-10T11:46:30;4.88;;;3.85;;
17361;SDS011;8798;51.938;4.348;2023-06-10T11:48:59;5.10;;;4.05;;
17361;SDS011;8798;51.938;4.348;2023-06-10T11:51:30;6.30;;;3.90;;
17361;SDS011;8798;51.938;4.348;2023-06-10T11:54:00;6.35;;;4.55;;
17361;SDS011;8798;51.938;4.348;2023-06-10T11:56:28;5.38;;;4.25;;
17361;SDS011;8798;51.938;4.348;2023-06-10T11:58:57;8.90;;;4.13;;
17361;SDS011;8798;51.938;4.348;2023-06-10T12:01:32;5.80;;;3.75;;
17361;SDS011;8798;51.938;4.348;2023-06-10T12:04:05;4.30;;;3.90;;
17361;SDS011;8798;51.938;4.348;2023-06-10T12:06:37;4.82;;;3.70;;
17361;SDS011;8798;51.938;4.348;2023-06-10T12:09:06;5.30;;;3.85;;
17361;SDS011;8798;51.938;4.348;2023-06-10T12:11:50;5.07;;;4.28;;
17361;SDS011;8798;51.938;4.348;2023-06-10T12:17:19;4.22;;;3.80;;
17361;SDS011;8798;51.938;4.348;2023-06-10T12:19:48;4.35;;;3.63;;
17361;SDS011;8798;51.938;4.348;2023-06-10T12:22:16;5.10;;;4.05;;
17361;SDS011;8798;51.938;4.348;2023-06-10T12:24:45;4.32;;;3.80;;
17361;SDS011;8798;51.938;4.348;2023-06-10T12:27:25;4.30;;;3.60;;
17361;SDS011;8798;51.938;4.348;2023-06-10T12:29:56;5.32;;;4.10;;
17361;SDS011;8798;51.938;4.348;2023-06-10T12:32:36;7.82;;;4.20;;
17361;SDS011;8798;51.938;4.348;2023-06-10T12:35:05;5.70;;;4.00;;
17361;SDS011;8798;51.938;4.348;2023-06-10T12:37:34;7.18;;;3.92;;
17361;SDS011;8798;51.938;4.348;2023-06-10T12:40:08;12.18;;;4.07;;
17361;SDS011;8798;51.938;4.348;2023-06-10T12:42:37;5.03;;;4.15;;
17361;SDS011;8798;51.938;4.348;2023-06-10T12:45:06;4.82;;;4.25;;
17361;SDS011;8798;51.938;4.348;2023-06-10T12:47:38;4.13;;;3.47;;
17361;SDS011;8798;51.938;4.348;2023-06-10T12:50:06;6.28;;;4.00;;
17361;SDS011;8798;51.938;4.348;2023-06-10T12:52:35;4.40;;;3.80;;
17361;SDS011;8798;51.938;4.348;2023-06-10T12:55:04;5.13;;;3.90;;
17361;SDS011;8798;51.938;4.348;2023-06-10T12:57:32;5.15;;;4.30;;
17361;SDS011;8798;51.938;4.348;2023-06-10T13:00:00;5.97;;;3.85;;
17361;SDS011;8798;51.938;4.348;2023-06-10T13:02:31;4.40;;;3.80;;
17361;SDS011;8798;51.938;4.348;2023-06-10T13:05:00;3.75;;;3.40;;
17361;SDS011;8798;51.938;4.348;2023-06-10T13:07:29;4.70;;;3.78;;
17361;SDS011;8798;51.938;4.348;2023-06-10T13:09:59;6.72;;;3.65;;
17361;SDS011;8798;51.938;4.348;2023-06-10T13:12:27;4.70;;;3.97;;
17361;SDS011;8798;51.938;4.348;2023-06-10T13:15:12;8.80;;;4.32;;
17361;SDS011;8798;51.938;4.348;2023-06-10T13:17:41;5.25;;;3.97;;
17361;SDS011;8798;51.938;4.348;2023-06-10T13:20:11;4.00;;;3.58;;
17361;SDS011;8798;51.938;4.348;2023-06-10T13:22:39;4.35;;;3.95;;
17361;SDS011;8798;51.938;4.348;2023-06-10T13:25:07;5.28;;;3.78;;
17361;SDS011;8798;51.938;4.348;2023-06-10T13:27:36;5.20;;;3.50;;
17361;SDS011;8798;51.938;4.348;2023-06-10T13:30:05;3.83;;;3.42;;
17361;SDS011;8798;51.938;4.348;2023-06-10T13:32:35;4.55;;;3.58;;
17361;SDS011;8798;51.938;4.348;2023-06-10T13:35:03;4.55;;;3.72;;
17361;SDS011;8798;51.938;4.348;2023-06-10T13:37:34;5.45;;;3.80;;
17361;SDS011;8798;51.938;4.348;2023-06-10T13:40:02;4.82;;;3.80;;
17361;SDS011;8798;51.938;4.348;2023-06-10T13:42:31;4.63;;;3.75;;
17361;SDS011;8798;51.938;4.348;2023-06-10T13:44:59;5.28;;;3.90;;
17361;SDS011;8798;51.938;4.348;2023-06-10T13:47:27;4.65;;;3.78;;
17361;SDS011;8798;51.938;4.348;2023-06-10T13:49:55;5.68;;;4.05;;
17361;SDS011;8798;51.938;4.348;2023-06-10T13:52:23;5.47;;;4.05;;
17361;SDS011;8798;51.938;4.348;2023-06-10T13:54:52;5.03;;;4.03;;
17361;SDS011;8798;51.938;4.348;2023-06-10T13:57:20;4.32;;;3.78;;
17361;SDS011;8798;51.938;4.348;2023-06-10T13:59:48;4.25;;;3.58;;
17361;SDS011;8798;51.938;4.348;2023-06-10T14:02:16;4.50;;;3.80;;
17361;SDS011;8798;51.938;4.348;2023-06-10T14:04:44;7.35;;;3.72;;
17361;SDS011;8798;51.938;4.348;2023-06-10T14:07:11;4.22;;;3.83;;
17361;SDS011;8798;51.938;4.348;2023-06-10T14:09:39;4.93;;;3.38;;
17361;SDS011;8798;51.938;4.348;2023-06-10T14:12:09;3.83;;;3.42;;
17361;SDS011;8798;51.938;4.348;2023-06-10T14:14:37;4.20;;;3.80;;
17361;SDS011;8798;51.938;4.348;2023-06-10T14:17:05;5.10;;;3.72;;
17361;SDS011;8798;51.938;4.348;2023-06-10T14:19:33;4.13;;;3.72;;
17361;SDS011;8798;51.938;4.348;2023-06-10T14:22:01;4.63;;;3.85;;
17361;SDS011;8798;51.938;4.348;2023-06-10T14:24:33;4.32;;;3.90;;
17361;SDS011;8798;51.938;4.348;2023-06-10T14:27:01;6.32;;;3.55;;
17361;SDS011;8798;51.938;4.348;2023-06-10T14:29:30;4.10;;;3.63;;
17361;SDS011;8798;51.938;4.348;2023-06-10T14:32:00;4.05;;;3.75;;
17361;SDS011;8798;51.938;4.348;2023-06-10T14:34:30;4.47;;;3.72;;
17361;SDS011;8798;51.938;4.348;2023-06-10T14:37:00;5.35;;;3.72;;
17361;SDS011;8798;51.938;4.348;2023-06-10T14:39:29;3.80;;;3.40;;
17361;SDS011;8798;51.938;4.348;2023-06-10T14:41:57;5.07;;;3.72;;
17361;SDS011;8798;51.938;4.348;2023-06-10T14:44:25;4.32;;;3.67;;
17361;SDS011;8798;51.938;4.348;2023-06-10T14:46:54;4.18;;;3.60;;
17361;SDS011;8798;51.938;4.348;2023-06-10T14:49:22;3.97;;;3.58;;
17361;SDS011;8798;51.938;4.348;2023-06-10T14:51:50;5.97;;;3.50;;
17361;SDS011;8798;51.938;4.348;2023-06-10T14:54:18;6.28;;;3.70;;
17361;SDS011;8798;51.938;4.348;2023-06-10T14:56:45;4.03;;;3.63;;
17361;SDS011;8798;51.938;4.348;2023-06-10T14:59:13;4.32;;;3.40;;
17361;SDS011;8798;51.938;4.348;2023-06-10T15:01:41;4.82;;;3.72;;
17361;SDS011;8798;51.938;4.348;2023-06-10T15:04:12;4.75;;;3.45;;
17361;SDS011;8798;51.938;4.348;2023-06-10T15:06:40;4.15;;;3.75;;
17361;SDS011;8798;51.938;4.348;2023-06-10T15:09:07;5.32;;;3.55;;
17361;SDS011;8798;51.938;4.348;2023-06-10T15:11:35;5.70;;;4.78;;
17361;SDS011;8798;51.938;4.348;2023-06-10T15:14:04;4.10;;;3.70;;
17361;SDS011;8798;51.938;4.348;2023-06-10T15:16:32;4.22;;;3.72;;
17361;SDS011;8798;51.938;4.348;2023-06-10T15:19:00;4.80;;;3.40;;
17361;SDS011;8798;51.938;4.348;2023-06-10T15:21:29;10.95;;;7.53;;